Time;durP1;ratioP1;P1;durP2;ratioP2;P2;SDS_P1;SDS_P2;PMS_P1;PMS_P2;Temp;Humidity;BMP_temperature;BMP_pressure;BME280_temperature;BME280_humidity;BME280_pressure;Samples;Min_cycle;Max_cycle;Signal;HPM_P1;HPM_P2
2023/03/03 00:02:29;;;;;;;36.30;15.57;;;;;;;-5.06;100.00;96888.59;10370315;28;20228;-62
2023/03/03 00:07:29;;;;;;;34.97;16.30;;;;;;;-5.03;100.00;96890.22;10370374;28;20315;-63
2023/03/03 00:12:30;;;;;;;33.67;15.57;;;;;;;-5.05;100.00;96903.06;10432917;23;20243;-60
2023/03/03 00:17:32;;;;;;;31.93;16.03;;;;;;;-4.98;100.00;96900.28;10450156;28;20212;-60
2023/03/03 00:22:35;;;;;;;28.97;13.97;;;;;;;-4.78;100.00;96900.34;10450857;28;20631;-62
2023/03/03 00:27:36;;;;;;;31.47;14.03;;;;;;;-4.84;100.00;96904.00;10449747;28;20617;-59
2023/03/03 00:32:41;;;;;;;37.33;15.93;;;;;;;-4.92;100.00;96912.81;10448526;28;20425;-61
2023/03/03 00:37:42;;;;;;;37.40;16.43;;;;;;;-4.87;100.00;96922.00;10458285;28;20244;-58
2023/03/03 00:42:48;;;;;;;30.87;15.00;;;;;;;-5.00;100.00;96909.72;10470872;28;20299;-64
2023/03/03 00:47:48;;;;;;;31.03;15.87;;;;;;;-4.96;100.00;96914.66;10450443;28;20333;-63
2023/03/03 00:53:20;;;;;;;32.83;15.30;;;;;;;-4.96;100.00;96907.00;10449417;28;20702;-62
2023/03/03 00:58:21;;;;;;;33.27;13.97;;;;;;;-4.90;100.00;96903.38;10449783;28;20191;-64
2023/03/03 01:03:24;;;;;;;31.53;14.53;;;;;;;-4.82;100.00;96908.19;10466035;28;20259;-62
2023/03/03 01:08:25;;;;;;;28.27;13.77;;;;;;;-4.75;100.00;96899.41;10452117;28;20191;-64
2023/03/03 01:13:27;;;;;;;33.67;15.10;;;;;;;-4.79;100.00;96897.84;10453253;28;20250;-62
2023/03/03 01:18:28;;;;;;;29.57;12.27;;;;;;;-4.78;100.00;96889.31;10457803;28;20191;-64
2023/03/03 01:23:29;;;;;;;32.60;14.30;;;;;;;-4.92;100.00;96882.16;10473705;28;20203;-64
2023/03/03 01:28:29;;;;;;;33.63;14.60;;;;;;;-5.13;100.00;96889.75;10458936;28;20203;-61
2023/03/03 01:33:31;;;;;;;32.87;15.20;;;;;;;-5.18;100.00;96893.34;10455078;28;20230;-60
2023/03/03 01:38:34;;;;;;;34.57;15.70;;;;;;;-5.16;100.00;96902.63;10416746;28;20199;-62
2023/03/03 01:43:42;;;;;;;24.57;13.13;;;;;;;-5.27;100.00;96905.56;10416447;28;20769;-62
2023/03/03 01:48:44;;;;;;;36.10;16.00;;;;;;;-5.15;100.00;96921.31;10416201;28;20185;-61
2023/03/03 01:53:47;;;;;;;30.73;13.97;;;;;;;-4.95;100.00;96923.16;10431553;28;20227;-62
2023/03/03 01:58:53;;;;;;;32.67;15.27;;;;;;;-4.73;100.00;96921.47;10414591;28;20258;-62
2023/03/03 02:03:54;;;;;;;29.93;15.57;;;;;;;-4.58;100.00;96924.34;10415185;28;20622;-62
2023/03/03 02:09:11;;;;;;;37.47;18.13;;;;;;;-4.46;100.00;96926.41;10415517;28;20198;-62
2023/03/03 02:14:12;;;;;;;53.77;19.43;;;;;;;-4.55;100.00;96907.16;10413993;28;20255;-62
2023/03/03 02:19:49;;;;;;;69.17;24.80;;;;;;;-4.71;100.00;96899.25;10413613;28;20649;-60
2023/03/03 02:24:56;;;;;;;75.47;26.40;;;;;;;-4.61;100.00;96893.78;10413388;28;20294;-62
2023/03/03 02:29:57;;;;;;;66.27;27.40;;;;;;;-4.59;100.00;96899.69;10413488;28;20285;-61
2023/03/03 02:34:57;;;;;;;87.97;28.33;;;;;;;-4.69;100.00;96887.22;10429921;28;20210;-63
2023/03/03 02:39:58;;;;;;;54.07;22.07;;;;;;;-4.71;100.00;96881.34;10414544;28;20183;-62
2023/03/03 02:44:58;;;;;;;78.03;28.40;;;;;;;-5.02;100.00;96897.00;10413210;28;20219;-62
2023/03/03 02:49:58;;;;;;;78.03;30.47;;;;;;;-5.05;100.00;96900.50;10411857;28;20243;-60
2023/03/03 02:54:59;;;;;;;86.17;31.57;;;;;;;-5.05;100.00;96908.16;10412617;28;20684;-63
2023/03/03 02:59:59;;;;;;;91.77;34.23;;;;;;;-5.13;100.00;96912.72;10412642;28;20278;-62
2023/03/03 03:05:00;;;;;;;97.47;37.27;;;;;;;-5.40;100.00;96914.53;10428321;28;20215;-63
2023/03/03 03:10:01;;;;;;;99.57;39.20;;;;;;;-5.43;100.00;96923.13;10412102;28;20685;-60
2023/03/03 03:15:05;;;;;;;114.83;40.93;;;;;;;-5.63;100.00;96928.09;10427773;28;20246;-63
2023/03/03 03:20:06;;;;;;;101.87;37.93;;;;;;;-5.71;100.00;96930.91;10427414;28;20206;-62
2023/03/03 03:25:07;;;;;;;95.87;34.50;;;;;;;-5.71;100.00;96932.59;10410556;28;20212;-63
2023/03/03 03:30:08;;;;;;;107.07;38.20;;;;;;;-5.93;100.00;96943.50;10411660;28;20210;-62
2023/03/03 03:35:10;;;;;;;110.27;38.17;;;;;;;-5.87;100.00;96945.84;10410497;28;20188;-63
2023/03/03 03:40:12;;;;;;;85.33;32.20;;;;;;;-5.47;100.00;96957.28;10426197;28;20539;-63
2023/03/03 03:45:14;;;;;;;90.50;34.33;;;;;;;-5.24;100.00;96948.00;10411449;28;20192;-63
2023/03/03 03:50:15;;;;;;;90.00;33.37;;;;;;;-5.26;100.00;96950.63;10420323;28;20229;-62
2023/03/03 03:55:16;;;;;;;78.50;30.23;;;;;;;-5.17;100.00;96943.53;10425531;28;20618;-63
2023/03/03 04:00:17;;;;;;;66.10;28.23;;;;;;;-5.10;100.00;96940.72;10425547;28;20281;-62
2023/03/03 04:05:24;;;;;;;60.23;26.33;;;;;;;-5.21;100.00;96938.53;10450089;28;20280;-62
2023/03/03 04:10:24;;;;;;;56.90;25.97;;;;;;;-5.13;100.00;96924.63;10451539;28;20773;-63
2023/03/03 04:15:25;;;;;;;78.50;28.23;;;;;;;-5.14;100.00;96928.09;10450186;28;20199;-60
2023/03/03 04:20:25;;;;;;;68.70;27.57;;;;;;;-5.34;100.00;96931.31;10451350;28;20675;-63
2023/03/03 04:25:28;;;;;;;64.53;27.57;;;;;;;-5.12;100.00;96933.97;10449849;28;20564;-63
2023/03/03 04:30:28;;;;;;;58.97;24.93;;;;;;;-5.11;100.00;96922.88;10450774;28;20218;-62
2023/03/03 04:35:30;;;;;;;75.10;28.33;;;;;;;-5.19;100.00;96938.47;10449477;28;20203;-63
2023/03/03 04:40:31;;;;;;;67.20;27.17;;;;;;;-5.12;100.00;96947.56;10450826;28;20203;-62
2023/03/03 04:45:33;;;;;;;58.47;26.17;;;;;;;-4.89;100.00;96948.47;10458268;28;20195;-62
2023/03/03 04:50:34;;;;;;;70.30;26.40;;;;;;;-4.90;100.00;96954.47;10457334;28;20365;-62
2023/03/03 04:55:36;;;;;;;65.30;25.53;;;;;;;-4.73;100.00;96961.50;10458472;28;20695;-61
2023/03/03 05:00:38;;;;;;;57.63;25.10;;;;;;;-4.76;100.00;96949.69;10457034;28;20301;-61
2023/03/03 05:05:40;;;;;;;67.57;25.40;;;;;;;-4.69;100.00;96961.34;10458544;28;20560;-63
2023/03/03 05:10:40;;;;;;;65.03;26.90;;;;;;;-4.74;100.00;96963.25;10459459;28;20234;-62
2023/03/03 05:15:41;;;;;;;64.00;26.77;;;;;;;-4.61;100.00;96971.31;10459515;28;20281;-62
2023/03/03 05:20:41;;;;;;;60.97;26.17;;;;;;;-4.58;100.00;96971.19;10459219;28;20215;-62
2023/03/03 05:25:42;;;;;;;62.03;27.03;;;;;;;-4.55;100.00;96968.53;10459122;28;20277;-62
2023/03/03 05:30:42;;;;;;;68.67;26.77;;;;;;;-4.53;100.00;96979.53;10458463;28;20649;-62
2023/03/03 05:35:43;;;;;;;70.40;27.70;;;;;;;-4.48;100.00;96985.28;10458622;28;20329;-59
2023/03/03 05:40:43;;;;;;;75.30;28.03;;;;;;;-4.54;100.00;96982.94;10457734;28;20213;-62
2023/03/03 05:45:43;;;;;;;80.13;28.40;;;;;;;-4.59;100.00;96973.81;10457569;28;20199;-63
2023/03/03 05:50:44;;;;;;;81.70;31.03;;;;;;;-4.51;100.00;96966.69;10457441;28;20317;-62
2023/03/03 05:55:44;;;;;;;90.87;30.70;;;;;;;-4.45;100.00;96974.13;10457663;28;20195;-62
2023/03/03 06:00:45;;;;;;;88.20;28.20;;;;;;;-4.31;100.00;96951.41;10457564;28;20356;-62
2023/03/03 06:05:45;;;;;;;87.37;32.57;;;;;;;-4.30;100.00;96970.16;10457469;28;20630;-61
2023/03/03 06:10:45;;;;;;;96.07;32.37;;;;;;;-4.12;100.00;96984.78;10456884;28;20865;-62
2023/03/03 06:15:48;;;;;;;85.33;30.97;;;;;;;-3.97;100.00;96974.84;10455441;28;20204;-61
2023/03/03 06:20:52;;;;;;;98.50;32.87;;;;;;;-3.99;100.00;96976.63;10456495;28;20294;-60
2023/03/03 06:25:53;;;;;;;84.70;32.83;;;;;;;-3.98;100.00;96981.69;10455796;28;20254;-60
2023/03/03 06:30:54;;;;;;;85.53;30.10;;;;;;;-4.04;100.00;96976.81;10445472;28;20238;-59
2023/03/03 06:35:55;;;;;;;90.87;31.40;;;;;;;-4.00;100.00;96975.78;10417440;28;20227;-61
2023/03/03 06:40:55;;;;;;;110.00;42.70;;;;;;;-3.89;100.00;96977.94;10415203;28;20211;-62
2023/03/03 06:45:55;;;;;;;89.00;32.30;;;;;;;-3.95;100.00;96965.41;10429420;28;20254;-60
2023/03/03 06:50:57;;;;;;;73.67;26.67;;;;;;;-3.70;100.00;96957.53;10431297;28;20220;-62
2023/03/03 06:55:58;;;;;;;79.17;28.57;;;;;;;-3.64;100.00;96970.09;10467848;28;20195;-61
2023/03/03 07:01:00;;;;;;;76.43;29.37;;;;;;;-3.42;100.00;96966.66;10455421;28;20262;-62
2023/03/03 07:06:01;;;;;;;67.33;26.87;;;;;;;-3.10;100.00;96977.25;10454318;28;20214;-62
2023/03/03 07:11:08;;;;;;;73.17;28.53;;;;;;;-3.03;100.00;96967.56;10455126;28;20242;-63
2023/03/03 07:16:11;;;;;;;59.77;26.30;;;;;;;-2.90;100.00;96974.66;10454527;28;20566;-62
2023/03/03 07:21:23;;;;;;;64.57;27.90;;;;;;;-2.78;100.00;96982.72;10454544;28;20212;-60
2023/03/03 07:26:31;;;;;;;61.77;26.67;;;;;;;-2.68;100.00;96986.53;10454262;28;20214;-60
2023/03/03 07:31:45;;;;;;;56.03;24.63;;;;;;;-2.59;100.00;96998.97;10469633;28;20669;-62
2023/03/03 07:36:45;;;;;;;66.90;26.53;;;;;;;-2.39;100.00;97008.34;10469123;28;20195;-61
2023/03/03 07:41:46;;;;;;;60.93;26.00;;;;;;;-2.20;100.00;97004.94;10453578;28;20689;-63
2023/03/03 07:46:47;;;;;;;57.93;24.93;;;;;;;-2.36;100.00;96994.50;10447674;28;20204;-62
2023/03/03 07:51:52;;;;;;;56.43;25.63;;;;;;;-2.15;100.00;96992.72;10451177;28;20230;-62
2023/03/03 07:56:55;;;;;;;53.97;25.10;;;;;;;-2.18;100.00;96991.09;10449460;28;20562;-60
2023/03/03 08:02:00;;;;;;;50.43;24.90;;;;;;;-1.62;100.00;96989.34;10433800;28;20237;-60
2023/03/03 08:07:01;;;;;;;52.60;24.00;;;;;;;-1.11;100.00;97004.81;10428436;28;20229;-62
2023/03/03 08:12:28;;;;;;;48.53;22.57;;;;;;;-0.85;100.00;97012.13;10439720;28;20306;-63
2023/03/03 08:17:35;;;;;;;52.37;23.83;;;;;;;-0.73;100.00;97006.34;10422411;28;20201;-63
2023/03/03 08:22:36;;;;;;;50.47;22.80;;;;;;;-0.63;100.00;96992.13;10447303;28;20218;-62
2023/03/03 08:27:36;;;;;;;50.53;22.80;;;;;;;-0.72;100.00;97005.44;10448441;28;20288;-61
2023/03/03 08:32:36;;;;;;;52.87;24.23;;;;;;;-0.45;100.00;97008.31;10448672;28;20223;-59
2023/03/03 08:37:37;;;;;;;48.40;23.10;;;;;;;-0.36;100.00;97001.84;10448486;28;20199;-63
2023/03/03 08:42:37;;;;;;;47.73;22.77;;;;;;;-0.39;100.00;96978.84;10449262;28;20318;-63
2023/03/03 08:47:38;;;;;;;45.67;22.67;;;;;;;-1.01;100.00;96994.91;10448841;28;20583;-61
2023/03/03 08:52:38;;;;;;;59.13;24.27;;;;;;;-1.57;100.00;97003.69;10446194;28;20716;-62
2023/03/03 08:57:38;;;;;;;49.00;22.50;;;;;;;-1.27;100.00;97002.19;10446645;28;20545;-58
2023/03/03 09:02:39;;;;;;;53.80;23.67;;;;;;;-1.55;100.00;97007.84;10446367;28;20287;-62
2023/03/03 09:07:39;;;;;;;46.10;20.93;;;;;;;-1.20;100.00;97018.13;10444063;28;20201;-63
2023/03/03 09:12:42;;;;;;;50.77;22.10;;;;;;;-0.92;100.00;97029.59;10442843;28;20236;-60
2023/03/03 09:17:43;;;;;;;58.73;23.37;;;;;;;-0.86;100.00;97026.72;10447966;28;20264;-63
2023/03/03 09:22:43;;;;;;;51.47;21.73;;;;;;;-0.46;100.00;97026.41;10447854;28;20217;-63
2023/03/03 09:27:44;;;;;;;57.80;25.87;;;;;;;-0.76;100.00;97030.50;10437770;28;20204;-62
2023/03/03 09:32:44;;;;;;;41.47;20.67;;;;;;;-0.49;100.00;97031.72;10438886;28;20231;-61
2023/03/03 09:37:46;;;;;;;35.63;17.27;;;;;;;-0.07;100.00;97026.03;10439591;28;20218;-63
2023/03/03 09:43:11;;;;;;;27.33;13.10;;;;;;;0.22;100.00;97022.78;10446873;28;20267;-63
2023/03/03 09:48:18;;;;;;;37.90;17.80;;;;;;;0.03;100.00;97021.22;10433606;28;20207;-63
2023/03/03 09:53:34;;;;;;;39.33;17.97;;;;;;;0.23;100.00;97033.00;10437204;28;20224;-63
2023/03/03 09:58:45;;;;;;;35.77;16.43;;;;;;;-0.02;100.00;97036.09;10432146;28;20677;-63
2023/03/03 10:03:53;;;;;;;40.43;17.70;;;;;;;-0.47;100.00;97043.59;10453573;28;20233;-61
2023/03/03 10:09:11;;;;;;;40.87;17.30;;;;;;;-0.29;100.00;97069.28;10449056;28;20195;-62
2023/03/03 10:14:31;;;;;;;40.27;18.70;;;;;;;-0.17;100.00;97066.06;10452322;28;20327;-62
2023/03/03 10:19:49;;;;;;;42.20;19.07;;;;;;;-0.45;100.00;97064.09;10452959;28;20215;-62
2023/03/03 10:25:10;;;;;;;38.53;18.10;;;;;;;-1.15;100.00;97056.47;10451879;28;20265;-63
2023/03/03 10:30:16;;;;;;;39.63;17.43;;;;;;;-0.75;100.00;97063.03;10443449;28;20220;-63
2023/03/03 10:35:35;;;;;;;30.17;15.07;;;;;;;-0.46;100.00;97072.72;10433523;28;20215;-63
2023/03/03 10:40:54;;;;;;;39.20;17.27;;;;;;;-0.56;100.00;97074.94;10438152;28;20215;-63
2023/03/03 10:46:09;;;;;;;34.43;16.90;;;;;;;-0.42;100.00;97071.66;10452057;28;20729;-63
2023/03/03 10:51:21;;;;;;;37.67;16.23;;;;;;;-0.28;100.00;97078.66;10449505;28;20219;-63
2023/03/03 10:56:29;;;;;;;32.53;15.53;;;;;;;-0.25;100.00;97089.63;10435539;28;20196;-62
2023/03/03 11:01:43;;;;;;;30.93;14.17;;;;;;;-0.05;100.00;97070.53;10451606;28;20211;-63
2023/03/03 11:06:58;;;;;;;34.97;15.30;;;;;;;-0.07;100.00;97063.84;10449670;28;20195;-61
2023/03/03 11:12:18;;;;;;;29.90;14.33;;;;;;;-0.16;100.00;97060.00;10451406;28;20230;-61
2023/03/03 11:17:22;;;;;;;27.77;13.97;;;;;;;0.02;100.00;97053.03;10450168;28;20286;-63
2023/03/03 11:22:37;;;;;;;27.20;13.50;;;;;;;0.17;100.00;97052.22;10451463;28;20222;-63
2023/03/03 11:28:00;;;;;;;26.93;13.20;;;;;;;-0.04;100.00;97046.47;10449783;28;20253;-63
2023/03/03 11:33:25;;;;;;;26.20;13.17;;;;;;;0.04;100.00;97047.81;10451279;28;20255;-63
2023/03/03 11:38:40;;;;;;;24.57;12.93;;;;;;;0.17;100.00;97038.50;10449443;28;20284;-63
2023/03/03 11:43:48;;;;;;;39.17;17.83;;;;;;;-1.04;100.00;97043.06;10447906;28;20210;-62
2023/03/03 11:49:08;;;;;;;36.17;16.90;;;;;;;-0.57;100.00;97052.69;10435942;28;20191;-61
2023/03/03 11:54:33;;;;;;;34.33;17.30;;;;;;;-0.68;100.00;97039.56;10431670;28;20282;-60
2023/03/03 11:59:55;;;;;;;29.23;15.13;;;;;;;-0.35;100.00;97039.56;10413061;28;20181;-63
2023/03/03 12:05:04;;;;;;;30.77;12.87;;;;;;;-0.35;100.00;97039.56;10434319;28;20320;-63
2023/03/03 12:10:31;;;;;;;27.90;14.43;;;;;;;-0.37;100.00;97034.50;10454333;28;20318;-63
2023/03/03 12:15:48;;;;;;;25.73;13.27;;;;;;;-0.14;100.00;97037.56;10443595;28;20200;-63
2023/03/03 12:21:15;;;;;;;30.53;14.50;;;;;;;-0.70;100.00;97028.50;10449278;28;20207;-62
2023/03/03 12:26:17;;;;;;;26.43;13.27;;;;;;;-0.41;100.00;97032.97;10431806;28;20255;-63
2023/03/03 12:31:25;;;;;;;26.07;12.63;;;;;;;-0.36;100.00;97030.16;10449134;28;20270;-61
2023/03/03 12:36:35;;;;;;;25.40;12.60;;;;;;;-0.19;100.00;97027.50;10448223;28;20254;-62
2023/03/03 12:41:44;;;;;;;26.87;14.60;;;;;;;0.37;100.00;97018.50;10430930;28;20585;-64
2023/03/03 12:47:09;;;;;;;21.47;12.07;;;;;;;-0.71;100.00;97017.38;10448637;28;20323;-64
2023/03/03 12:52:37;;;;;;;19.03;9.97;;;;;;;-1.06;100.00;97011.47;10448872;28;20596;-63
2023/03/03 12:57:44;;;;;;;28.33;13.73;;;;;;;-0.73;100.00;97017.47;10415436;28;20666;-63
2023/03/03 13:03:09;;;;;;;20.87;10.97;;;;;;;-0.07;100.00;97013.16;10407723;28;20252;-63
2023/03/03 13:08:21;;;;;;;15.37;8.90;;;;;;;-0.50;100.00;96997.44;10401392;28;20248;-63
2023/03/03 13:13:53;;;;;;;21.13;11.20;;;;;;;-1.20;100.00;96992.44;10417589;28;20240;-63
2023/03/03 13:18:59;;;;;;;15.97;9.00;;;;;;;-0.21;100.00;97001.03;10462945;28;20276;-63
2023/03/03 13:24:23;;;;;;;13.10;7.90;;;;;;;0.14;100.00;96976.84;10476824;28;20204;-63
2023/03/03 13:29:29;;;;;;;19.47;9.33;;;;;;;-0.65;100.00;96982.81;10457126;28;20205;-63
2023/03/03 13:34:38;;;;;;;16.50;9.13;;;;;;;-1.03;100.00;97004.44;10458991;28;20231;-64
2023/03/03 13:39:44;;;;;;;15.13;8.20;;;;;;;-0.25;100.00;97011.56;10458937;28;20258;-64
2023/03/03 13:44:46;;;;;;;13.00;6.40;;;;;;;0.06;100.00;96979.84;10474003;28;20677;-64
2023/03/03 13:49:52;;;;;;;16.73;8.27;;;;;;;-0.45;100.00;96969.69;10473793;28;20190;-64
2023/03/03 13:55:02;;;;;;;15.87;8.63;;;;;;;-1.11;100.00;96986.81;10457883;28;20712;-63
2023/03/03 14:00:18;;;;;;;17.70;9.07;;;;;;;-0.86;100.00;96995.03;10456921;28;20565;-65
2023/03/03 14:05:32;;;;;;;18.70;10.87;;;;;;;-0.34;100.00;96999.19;10473153;28;20191;-64
2023/03/03 14:10:38;;;;;;;18.40;10.27;;;;;;;-0.23;100.00;96994.28;10460081;28;20850;-64
2023/03/03 14:16:15;;;;;;;12.67;7.03;;;;;;;0.15;100.00;96974.19;10436942;28;20253;-65
2023/03/03 14:21:38;;;;;;;16.57;9.40;;;;;;;-0.84;100.00;96976.06;10427936;28;20668;-65
2023/03/03 14:26:53;;;;;;;20.67;10.03;;;;;;;-1.54;100.00;96968.41;10414725;28;20195;-65
2023/03/03 14:31:54;;;;;;;17.93;9.97;;;;;;;-1.09;100.00;96974.75;10415700;28;20282;-65
2023/03/03 14:37:09;;;;;;;22.90;10.80;;;;;;;-1.32;100.00;96965.63;10425267;28;20286;-63
2023/03/03 14:42:32;;;;;;;17.30;9.73;;;;;;;-1.26;100.00;96956.75;10454402;28;20749;-63
2023/03/03 14:47:35;;;;;;;19.30;10.43;;;;;;;-1.41;100.00;96957.53;10455965;28;20654;-63
2023/03/03 14:52:36;;;;;;;19.50;10.97;;;;;;;-1.65;100.00;96956.09;10452662;28;20729;-60
2023/03/03 14:57:46;;;;;;;18.53;9.87;;;;;;;-1.53;100.00;96952.09;10453840;28;20196;-64
2023/03/03 15:03:19;;;;;;;21.37;8.60;;;;;;;-1.03;100.00;96957.31;10455550;28;20211;-65
2023/03/03 15:08:31;;;;;;;21.67;10.30;;;;;;;-1.99;100.00;96957.72;10454250;28;20188;-62
2023/03/03 15:13:34;;;;;;;16.53;9.53;;;;;;;-1.11;100.00;96950.84;10453327;28;20322;-63
2023/03/03 15:18:52;;;;;;;21.53;11.60;;;;;;;-1.11;100.00;96942.31;10453771;28;20650;-60
2023/03/03 15:24:11;;;;;;;28.73;13.73;;;;;;;-1.59;100.00;96939.56;10466887;28;20782;-62
2023/03/03 15:29:36;;;;;;;22.80;11.60;;;;;;;-0.84;100.00;96947.75;10467514;28;20219;-62
2023/03/03 15:34:43;;;;;;;43.97;19.70;;;;;;;-1.05;100.00;96941.97;10466876;28;20227;-62
2023/03/03 15:40:37;;;;;;;45.63;21.67;;;;;;;-1.64;100.00;96947.50;10467543;28;20279;-62
2023/03/03 15:45:52;;;;;;;25.53;15.03;;;;;;;-2.39;100.00;96940.78;10396880;28;20213;-63
2023/03/03 15:51:23;;;;;;;14.40;8.57;;;;;;;-1.87;100.00;96940.91;10431686;28;20685;-63
2023/03/03 15:56:38;;;;;;;57.63;22.67;;;;;;;-2.10;100.00;96933.47;10428166;28;20192;-63
2023/03/03 16:01:43;;;;;;;33.53;17.03;;;;;;;-1.80;100.00;96939.69;10428209;28;20725;-63
2023/03/03 16:07:03;;;;;;;21.07;10.50;;;;;;;-1.62;100.00;96932.00;10437392;28;20193;-64
2023/03/03 16:12:17;;;;;;;17.03;9.03;;;;;;;-1.26;100.00;96939.63;10428494;28;20234;-64
2023/03/03 16:17:41;;;;;;;19.63;10.20;;;;;;;-1.19;100.00;96941.88;10410248;28;20265;-64
2023/03/03 16:22:55;;;;;;;17.27;8.60;;;;;;;-1.35;100.00;96946.94;10438141;28;20299;-64
2023/03/03 16:28:01;;;;;;;15.10;8.20;;;;;;;-1.48;100.00;96950.13;10429775;28;20197;-64
2023/03/03 16:33:17;;;;;;;19.67;10.43;;;;;;;-2.61;100.00;96943.50;10428892;28;20223;-63
2023/03/03 16:38:23;;;;;;;22.07;10.60;;;;;;;-2.55;100.00;96956.88;10446215;28;20195;-63
2023/03/03 16:43:40;;;;;;;21.60;10.03;;;;;;;-2.41;100.00;96965.69;10460208;28;20203;-63
2023/03/03 16:48:50;;;;;;;20.30;10.90;;;;;;;-2.44;100.00;96969.22;10463098;28;20241;-63
2023/03/03 16:53:59;;;;;;;34.30;13.73;;;;;;;-2.75;100.00;96980.84;10467557;28;20310;-63
2023/03/03 16:59:18;;;;;;;27.10;13.23;;;;;;;-2.79;100.00;96981.88;10467623;28;20207;-63
2023/03/03 17:04:33;;;;;;;29.80;14.73;;;;;;;-2.55;100.00;96981.69;10452046;28;20215;-63
2023/03/03 17:09:49;;;;;;;33.30;18.17;;;;;;;-2.91;100.00;96972.16;10467313;28;20195;-62
2023/03/03 17:15:13;;;;;;;33.27;16.67;;;;;;;-2.70;100.00;96976.34;10451286;28;20239;-62
2023/03/03 17:20:30;;;;;;;40.90;19.63;;;;;;;-2.68;100.00;96983.97;10451490;28;20192;-62
2023/03/03 17:25:39;;;;;;;33.80;16.53;;;;;;;-2.63;100.00;96983.78;10451560;28;20539;-62
2023/03/03 17:31:01;;;;;;;39.13;18.13;;;;;;;-2.75;100.00;96983.41;10451386;28;20281;-63
2023/03/03 17:36:21;;;;;;;35.23;16.70;;;;;;;-2.53;100.00;96987.59;10451131;28;20191;-63
2023/03/03 17:41:40;;;;;;;43.53;19.00;;;;;;;-2.74;100.00;96979.97;10449826;28;20807;-63
2023/03/03 17:46:45;;;;;;;43.47;22.00;;;;;;;-3.18;100.00;96987.03;10449652;28;20543;-62
2023/03/03 17:52:07;;;;;;;59.73;21.77;;;;;;;-3.08;100.00;97003.66;10472309;28;20220;-63
2023/03/03 17:57:30;;;;;;;58.10;21.17;;;;;;;-3.09;100.00;97002.81;10458376;28;20208;-62
2023/03/03 18:02:47;;;;;;;45.23;19.63;;;;;;;-3.00;100.00;97005.88;10457710;28;20215;-63
2023/03/03 18:08:01;;;;;;;48.90;21.03;;;;;;;-3.07;100.00;97005.31;10457674;28;20188;-63
2023/03/03 18:13:20;;;;;;;46.07;19.30;;;;;;;-2.94;100.00;97003.06;10480987;22;20718;-62
2023/03/03 18:18:30;;;;;;;51.13;21.00;;;;;;;-3.28;100.00;97005.34;10398836;28;20212;-61
2023/03/03 18:23:40;;;;;;;65.23;27.17;;;;;;;-3.21;100.00;97015.34;10386997;28;20216;-63
2023/03/03 18:28:49;;;;;;;69.50;23.63;;;;;;;-3.22;100.00;97011.91;10374821;28;20672;-61
2023/03/03 18:34:00;;;;;;;63.50;24.10;;;;;;;-2.90;100.00;97014.84;10373174;28;20225;-62
2023/03/03 18:39:01;;;;;;;65.20;24.90;;;;;;;-3.23;100.00;97016.22;10373144;28;20685;-62
2023/03/03 18:44:30;;;;;;;64.50;23.70;;;;;;;-3.29;100.00;97018.22;10374000;28;20221;-61
2023/03/03 18:50:02;;;;;;;65.40;24.87;;;;;;;-3.12;100.00;97012.38;10373425;28;20193;-62
2023/03/03 18:55:09;;;;;;;75.93;26.40;;;;;;;-3.31;100.00;97028.50;10355769;28;20233;-61
2023/03/03 19:00:22;;;;;;;87.80;27.73;;;;;;;-3.46;100.00;97029.13;10372109;28;20667;-63
2023/03/03 19:05:29;;;;;;;70.47;24.93;;;;;;;-3.11;100.00;97031.97;10372845;28;20224;-60
2023/03/03 19:10:46;;;;;;;72.40;25.53;;;;;;;-2.84;100.00;97026.59;10371251;28;20595;-61
2023/03/03 19:15:51;;;;;;;77.97;27.03;;;;;;;-3.28;100.00;97028.41;10370957;28;20319;-63
2023/03/03 19:21:00;;;;;;;57.37;20.63;;;;;;;-3.36;100.00;97022.75;10372285;28;20196;-63
2023/03/03 19:26:29;;;;;;;54.43;19.33;;;;;;;-3.39;100.00;97022.88;10370695;28;20635;-63
2023/03/03 19:31:43;;;;;;;49.77;18.37;;;;;;;-3.47;100.00;97022.34;10372083;28;20315;-62
2023/03/03 19:36:57;;;;;;;55.63;21.13;;;;;;;-3.28;100.00;97027.53;10370443;28;20232;-63
2023/03/03 19:42:00;;;;;;;50.57;18.03;;;;;;;-3.33;100.00;97025.19;10371673;28;20202;-62
2023/03/03 19:47:09;;;;;;;59.07;21.43;;;;;;;-3.57;100.00;97034.69;10371285;28;20711;-63
2023/03/03 19:52:35;;;;;;;55.83;18.30;;;;;;;-3.48;100.00;97034.31;10370720;28;20566;-63
2023/03/03 19:58:08;;;;;;;48.27;16.27;;;;;;;-3.59;100.00;97032.19;10370065;28;20613;-61
2023/03/03 20:03:49;;;;;;;50.13;19.17;;;;;;;-3.63;100.00;97040.91;10370871;28;20225;-63
2023/03/03 20:08:57;;;;;;;36.07;13.33;;;;;;;-3.40;100.00;97036.56;10353170;28;20193;-62
2023/03/03 20:14:24;;;;;;;50.37;17.90;;;;;;;-3.30;100.00;97032.72;10370120;28;20842;-61
2023/03/03 20:19:27;;;;;;;45.90;16.50;;;;;;;-3.42;100.00;97031.50;10347530;28;20208;-61
2023/03/03 20:24:34;;;;;;;55.87;19.53;;;;;;;-3.42;100.00;97028.13;10368902;28;20267;-60
2023/03/03 20:29:53;;;;;;;50.97;16.63;;;;;;;-3.38;100.00;97029.66;10370508;28;20193;-62
2023/03/03 20:35:02;;;;;;;54.43;17.63;;;;;;;-3.35;100.00;97023.56;10369979;28;20232;-62
2023/03/03 20:40:25;;;;;;;55.17;19.10;;;;;;;-3.62;100.00;97023.81;10368886;28;20267;-60
2023/03/03 20:45:38;;;;;;;41.53;17.30;;;;;;;-3.28;100.00;97014.72;10376853;28;20268;-63
2023/03/03 20:51:17;;;;;;;53.20;19.00;;;;;;;-3.45;100.00;97023.13;10388040;28;20256;-63
2023/03/03 20:56:27;;;;;;;48.97;16.90;;;;;;;-3.30;100.00;97012.25;10362123;28;20233;-63
2023/03/03 21:01:58;;;;;;;50.37;17.93;;;;;;;-3.30;100.00;97008.84;10372231;28;20189;-61
2023/03/03 21:07:00;;;;;;;29.10;11.03;;;;;;;-3.42;100.00;97007.63;10382047;28;20225;-63
2023/03/03 21:12:24;;;;;;;44.20;15.90;;;;;;;-3.38;100.00;97004.03;10386062;28;20220;-61
2023/03/03 21:17:28;;;;;;;33.90;10.37;;;;;;;-3.38;100.00;97005.75;10384291;28;20213;-63
2023/03/03 21:22:29;;;;;;;45.23;15.43;;;;;;;-3.43;100.00;96995.69;10368473;28;20276;-63
2023/03/03 21:27:35;;;;;;;56.30;19.67;;;;;;;-3.45;100.00;96990.66;10376368;28;20275;-63
2023/03/03 21:32:39;;;;;;;61.03;23.33;;;;;;;-3.58;100.00;96992.06;10375644;28;20255;-61
2023/03/03 21:37:49;;;;;;;71.00;24.10;;;;;;;-3.63;100.00;96979.44;10375700;28;20189;-63
2023/03/03 21:42:51;;;;;;;67.90;21.50;;;;;;;-3.61;100.00;96972.53;10375211;28;20240;-62
2023/03/03 21:47:53;;;;;;;60.93;20.03;;;;;;;-3.57;100.00;96980.91;10375254;28;20656;-62
2023/03/03 21:52:55;;;;;;;59.10;22.97;;;;;;;-3.58;100.00;96979.25;10375219;28;20726;-64
2023/03/03 21:57:55;;;;;;;48.83;16.13;;;;;;;-3.44;100.00;96979.50;10375629;28;20200;-62
2023/03/03 22:02:56;;;;;;;63.07;21.37;;;;;;;-3.53;100.00;96972.22;10375664;28;20213;-62
2023/03/03 22:07:56;;;;;;;49.03;16.60;;;;;;;-3.44;100.00;96968.44;10375210;28;20255;-64
2023/03/03 22:12:57;;;;;;;74.37;22.07;;;;;;;-3.57;100.00;96970.66;10374708;28;20332;-63
2023/03/03 22:17:58;;;;;;;82.10;23.53;;;;;;;-3.51;100.00;96967.03;10374927;28;20209;-63
2023/03/03 22:22:58;;;;;;;64.20;18.60;;;;;;;-3.43;100.00;96977.78;10374833;28;20223;-62
2023/03/03 22:27:58;;;;;;;63.80;20.17;;;;;;;-3.36;100.00;96963.81;10373939;28;20201;-61
2023/03/03 22:32:59;;;;;;;65.03;20.13;;;;;;;-3.42;100.00;96961.53;10374316;28;20236;-62
2023/03/03 22:37:59;;;;;;;64.23;17.20;;;;;;;-3.32;100.00;96972.19;10373970;28;20308;-63
2023/03/03 22:42:59;;;;;;;29.37;10.67;;;;;;;-3.25;100.00;96959.09;10374113;28;20205;-63
2023/03/03 22:48:00;;;;;;;65.03;17.50;;;;;;;-3.30;100.00;96957.63;10373198;28;20211;-63
2023/03/03 22:53:00;;;;;;;79.13;27.70;;;;;;;-3.44;100.00;96953.91;10373506;28;20295;-63
2023/03/03 22:58:00;;;;;;;77.27;21.40;;;;;;;-3.37;100.00;96951.91;10373615;28;20288;-58
2023/03/03 23:03:01;;;;;;;65.37;19.30;;;;;;;-3.30;100.00;96939.69;10359872;28;20220;-62
2023/03/03 23:08:03;;;;;;;42.20;13.93;;;;;;;-3.33;100.00;96944.94;10332224;28;20285;-61